sensor_id;sensor_type;location;lat;lon;timestamp;P1;durP1;ratioP1;P2;durP2;ratioP2
17235;SDS011;8734;59.272;17.780;2022-10-16T00:01:07;25.03;;;13.50;;
17235;SDS011;8734;59.272;17.780;2022-10-16T00:03:37;28.80;;;12.70;;
17235;SDS011;8734;59.272;17.780;2022-10-16T00:06:06;27.30;;;13.70;;
17235;SDS011;8734;59.272;17.780;2022-10-16T00:08:36;24.90;;;13.87;;
17235;SDS011;8734;59.272;17.780;2022-10-16T00:11:06;31.33;;;12.63;;
17235;SDS011;8734;59.272;17.780;2022-10-16T00:13:38;24.27;;;12.80;;
17235;SDS011;8734;59.272;17.780;2022-10-16T00:16:09;23.57;;;12.50;;
17235;SDS011;8734;59.272;17.780;2022-10-16T00:18:38;26.27;;;11.60;;
17235;SDS011;8734;59.272;17.780;2022-10-16T00:21:07;22.63;;;12.43;;
17235;SDS011;8734;59.272;17.780;2022-10-16T00:23:38;23.87;;;12.40;;
17235;SDS011;8734;59.272;17.780;2022-10-16T00:26:07;25.73;;;12.83;;
17235;SDS011;8734;59.272;17.780;2022-10-16T00:28:37;27.03;;;11.70;;
17235;SDS011;8734;59.272;17.780;2022-10-16T00:31:07;23.23;;;12.17;;
17235;SDS011;8734;59.272;17.780;2022-10-16T00:33:36;25.27;;;13.20;;
17235;SDS011;8734;59.272;17.780;2022-10-16T00:36:06;27.77;;;11.17;;
17235;SDS011;8734;59.272;17.780;2022-10-16T00:38:38;26.67;;;13.80;;
17235;SDS011;8734;59.272;17.780;2022-10-16T00:41:07;25.13;;;13.50;;
17235;SDS011;8734;59.272;17.780;2022-10-16T00:43:40;21.83;;;11.93;;
17235;SDS011;8734;59.272;17.780;2022-10-16T00:46:11;22.33;;;12.63;;
17235;SDS011;8734;59.272;17.780;2022-10-16T00:48:45;27.20;;;13.67;;
17235;SDS011;8734;59.272;17.780;2022-10-16T00:51:16;23.00;;;12.03;;
17235;SDS011;8734;59.272;17.780;2022-10-16T00:53:48;26.50;;;12.60;;
17235;SDS011;8734;59.272;17.780;2022-10-16T00:56:17;26.73;;;13.13;;
17235;SDS011;8734;59.272;17.780;2022-10-16T00:58:46;28.00;;;13.80;;
17235;SDS011;8734;59.272;17.780;2022-10-16T01:01:14;26.40;;;14.30;;
17235;SDS011;8734;59.272;17.780;2022-10-16T01:03:42;26.43;;;14.77;;
17235;SDS011;8734;59.272;17.780;2022-10-16T01:06:19;29.60;;;15.43;;
17235;SDS011;8734;59.272;17.780;2022-10-16T01:09:06;27.97;;;15.00;;
17235;SDS011;8734;59.272;17.780;2022-10-16T01:11:44;31.20;;;15.13;;
17235;SDS011;8734;59.272;17.780;2022-10-16T01:14:22;28.67;;;16.00;;
17235;SDS011;8734;59.272;17.780;2022-10-16T01:16:56;25.80;;;13.37;;
17235;SDS011;8734;59.272;17.780;2022-10-16T01:19:36;31.57;;;15.30;;
17235;SDS011;8734;59.272;17.780;2022-10-16T01:22:31;34.17;;;15.77;;
17235;SDS011;8734;59.272;17.780;2022-10-16T01:25:09;28.60;;;14.30;;
17235;SDS011;8734;59.272;17.780;2022-10-16T01:27:45;28.00;;;12.53;;
17235;SDS011;8734;59.272;17.780;2022-10-16T01:30:16;24.93;;;14.17;;
17235;SDS011;8734;59.272;17.780;2022-10-16T01:32:49;31.03;;;14.90;;
17235;SDS011;8734;59.272;17.780;2022-10-16T01:35:21;27.27;;;14.47;;
17235;SDS011;8734;59.272;17.780;2022-10-16T01:37:53;25.70;;;13.13;;
17235;SDS011;8734;59.272;17.780;2022-10-16T01:40:25;26.97;;;13.67;;
17235;SDS011;8734;59.272;17.780;2022-10-16T01:42:57;33.83;;;14.17;;
17235;SDS011;8734;59.272;17.780;2022-10-16T01:45:29;19.20;;;10.63;;
17235;SDS011;8734;59.272;17.780;2022-10-16T01:48:00;28.03;;;12.90;;
17235;SDS011;8734;59.272;17.780;2022-10-16T01:50:35;27.50;;;12.83;;
17235;SDS011;8734;59.272;17.780;2022-10-16T01:53:06;24.87;;;10.80;;
17235;SDS011;8734;59.272;17.780;2022-10-16T01:55:39;17.43;;;8.60;;
17235;SDS011;8734;59.272;17.780;2022-10-16T01:58:13;25.27;;;12.53;;
17235;SDS011;8734;59.272;17.780;2022-10-16T02:00:43;18.37;;;10.73;;
17235;SDS011;8734;59.272;17.780;2022-10-16T02:03:12;24.47;;;11.80;;
17235;SDS011;8734;59.272;17.780;2022-10-16T02:05:46;21.20;;;12.30;;
17235;SDS011;8734;59.272;17.780;2022-10-16T02:08:17;20.10;;;11.17;;
17235;SDS011;8734;59.272;17.780;2022-10-16T02:10:47;17.00;;;8.43;;
17235;SDS011;8734;59.272;17.780;2022-10-16T02:13:17;18.93;;;10.20;;
17235;SDS011;8734;59.272;17.780;2022-10-16T02:15:51;19.87;;;10.30;;
17235;SDS011;8734;59.272;17.780;2022-10-16T02:18:20;20.47;;;10.33;;
17235;SDS011;8734;59.272;17.780;2022-10-16T02:20:50;20.37;;;10.27;;
17235;SDS011;8734;59.272;17.780;2022-10-16T02:23:24;18.30;;;9.40;;
17235;SDS011;8734;59.272;17.780;2022-10-16T02:26:03;23.23;;;10.87;;
17235;SDS011;8734;59.272;17.780;2022-10-16T02:28:37;16.80;;;9.20;;
17235;SDS011;8734;59.272;17.780;2022-10-16T02:31:11;22.60;;;10.13;;
17235;SDS011;8734;59.272;17.780;2022-10-16T02:33:42;13.30;;;8.20;;
17235;SDS011;8734;59.272;17.780;2022-10-16T02:36:12;18.37;;;10.40;;
17235;SDS011;8734;59.272;17.780;2022-10-16T02:38:41;27.53;;;10.23;;
17235;SDS011;8734;59.272;17.780;2022-10-16T02:41:09;23.27;;;9.57;;
17235;SDS011;8734;59.272;17.780;2022-10-16T02:43:39;21.33;;;11.33;;
17235;SDS011;8734;59.272;17.780;2022-10-16T02:46:07;18.30;;;9.97;;
17235;SDS011;8734;59.272;17.780;2022-10-16T02:48:36;20.00;;;10.37;;
17235;SDS011;8734;59.272;17.780;2022-10-16T02:51:06;18.23;;;9.87;;
17235;SDS011;8734;59.272;17.780;2022-10-16T02:53:34;23.33;;;10.30;;
17235;SDS011;8734;59.272;17.780;2022-10-16T02:56:02;21.50;;;10.93;;
17235;SDS011;8734;59.272;17.780;2022-10-16T02:58:31;20.70;;;10.67;;
17235;SDS011;8734;59.272;17.780;2022-10-16T03:01:00;20.33;;;10.87;;
17235;SDS011;8734;59.272;17.780;2022-10-16T03:03:29;18.77;;;8.83;;
17235;SDS011;8734;59.272;17.780;2022-10-16T03:05:57;28.63;;;13.00;;
17235;SDS011;8734;59.272;17.780;2022-10-16T03:08:25;23.50;;;11.23;;
17235;SDS011;8734;59.272;17.780;2022-10-16T03:10:54;23.57;;;9.90;;
17235;SDS011;8734;59.272;17.780;2022-10-16T03:13:22;21.10;;;10.83;;
17235;SDS011;8734;59.272;17.780;2022-10-16T03:15:50;20.20;;;10.57;;
17235;SDS011;8734;59.272;17.780;2022-10-16T03:18:20;18.67;;;10.40;;
17235;SDS011;8734;59.272;17.780;2022-10-16T03:20:48;22.43;;;10.57;;
17235;SDS011;8734;59.272;17.780;2022-10-16T03:23:16;21.67;;;10.00;;
17235;SDS011;8734;59.272;17.780;2022-10-16T03:25:46;19.17;;;10.57;;
17235;SDS011;8734;59.272;17.780;2022-10-16T03:28:14;17.40;;;9.60;;
17235;SDS011;8734;59.272;17.780;2022-10-16T03:30:42;21.43;;;10.13;;
17235;SDS011;8734;59.272;17.780;2022-10-16T03:33:11;21.60;;;10.43;;
17235;SDS011;8734;59.272;17.780;2022-10-16T03:35:41;20.57;;;10.80;;
17235;SDS011;8734;59.272;17.780;2022-10-16T03:38:09;23.60;;;10.30;;
17235;SDS011;8734;59.272;17.780;2022-10-16T03:40:38;21.57;;;10.07;;
17235;SDS011;8734;59.272;17.780;2022-10-16T03:43:06;20.17;;;10.70;;
17235;SDS011;8734;59.272;17.780;2022-10-16T03:45:34;17.70;;;9.57;;
17235;SDS011;8734;59.272;17.780;2022-10-16T03:48:03;16.50;;;7.97;;
17235;SDS011;8734;59.272;17.780;2022-10-16T03:50:31;18.17;;;9.00;;
17235;SDS011;8734;59.272;17.780;2022-10-16T03:53:00;15.97;;;8.47;;
17235;SDS011;8734;59.272;17.780;2022-10-16T03:55:29;21.60;;;8.73;;
17235;SDS011;8734;59.272;17.780;2022-10-16T03:57:58;13.33;;;7.43;;
17235;SDS011;8734;59.272;17.780;2022-10-16T04:00:26;23.07;;;8.77;;
17235;SDS011;8734;59.272;17.780;2022-10-16T04:02:55;15.80;;;8.73;;
17235;SDS011;8734;59.272;17.780;2022-10-16T04:05:23;16.87;;;7.90;;
17235;SDS011;8734;59.272;17.780;2022-10-16T04:07:51;9.80;;;5.60;;
17235;SDS011;8734;59.272;17.780;2022-10-16T04:10:21;14.13;;;7.80;;
17235;SDS011;8734;59.272;17.780;2022-10-16T04:12:49;12.17;;;7.83;;
17235;SDS011;8734;59.272;17.780;2022-10-16T04:15:17;18.63;;;7.90;;
17235;SDS011;8734;59.272;17.780;2022-10-16T04:17:45;17.23;;;8.70;;
17235;SDS011;8734;59.272;17.780;2022-10-16T04:20:14;10.30;;;7.23;;
17235;SDS011;8734;59.272;17.780;2022-10-16T04:22:42;13.00;;;7.33;;
17235;SDS011;8734;59.272;17.780;2022-10-16T04:25:10;12.70;;;7.17;;
17235;SDS011;8734;59.272;17.780;2022-10-16T04:27:40;16.03;;;9.40;;
17235;SDS011;8734;59.272;17.780;2022-10-16T04:30:12;13.77;;;8.80;;
17235;SDS011;8734;59.272;17.780;2022-10-16T04:32:40;11.43;;;6.30;;
17235;SDS011;8734;59.272;17.780;2022-10-16T04:35:09;15.43;;;8.47;;
17235;SDS011;8734;59.272;17.780;2022-10-16T04:37:37;19.00;;;8.40;;
17235;SDS011;8734;59.272;17.780;2022-10-16T04:40:06;14.53;;;8.80;;
17235;SDS011;8734;59.272;17.780;2022-10-16T04:42:34;14.33;;;7.03;;
17235;SDS011;8734;59.272;17.780;2022-10-16T04:45:05;16.47;;;8.43;;
17235;SDS011;8734;59.272;17.780;2022-10-16T04:47:40;15.07;;;7.23;;
17235;SDS011;8734;59.272;17.780;2022-10-16T04:50:08;14.70;;;8.03;;
17235;SDS011;8734;59.272;17.780;2022-10-16T04:52:37;12.60;;;7.00;;
17235;SDS011;8734;59.272;17.780;2022-10-16T04:55:05;15.13;;;7.73;;
17235;SDS011;8734;59.272;17.780;2022-10-16T04:57:34;13.87;;;7.43;;
17235;SDS011;8734;59.272;17.780;2022-10-16T05:00:04;14.03;;;8.30;;
17235;SDS011;8734;59.272;17.780;2022-10-16T05:02:34;9.07;;;5.43;;
17235;SDS011;8734;59.272;17.780;2022-10-16T05:05:03;13.73;;;7.73;;
17235;SDS011;8734;59.272;17.780;2022-10-16T05:07:31;14.40;;;6.80;;
17235;SDS011;8734;59.272;17.780;2022-10-16T05:09:59;13.83;;;7.60;;
17235;SDS011;8734;59.272;17.780;2022-10-16T05:12:28;17.83;;;7.60;;
17235;SDS011;8734;59.272;17.780;2022-10-16T05:14:56;13.30;;;7.40;;
17235;SDS011;8734;59.272;17.780;2022-10-16T05:17:26;13.27;;;8.20;;
17235;SDS011;8734;59.272;17.780;2022-10-16T05:19:55;16.13;;;8.53;;
17235;SDS011;8734;59.272;17.780;2022-10-16T05:22:23;18.50;;;7.53;;
17235;SDS011;8734;59.272;17.780;2022-10-16T05:24:51;14.33;;;8.27;;
17235;SDS011;8734;59.272;17.780;2022-10-16T05:27:20;20.03;;;9.00;;
17235;SDS011;8734;59.272;17.780;2022-10-16T05:29:48;15.60;;;8.43;;
17235;SDS011;8734;59.272;17.780;2022-10-16T05:32:17;13.43;;;8.27;;
17235;SDS011;8734;59.272;17.780;2022-10-16T05:34:47;18.17;;;8.50;;
17235;SDS011;8734;59.272;17.780;2022-10-16T05:37:16;15.83;;;8.63;;
17235;SDS011;8734;59.272;17.780;2022-10-16T05:39:44;16.50;;;8.40;;
17235;SDS011;8734;59.272;17.780;2022-10-16T05:42:12;13.27;;;7.53;;
17235;SDS011;8734;59.272;17.780;2022-10-16T05:44:41;17.20;;;9.37;;
17235;SDS011;8734;59.272;17.780;2022-10-16T05:47:09;18.57;;;10.43;;
17235;SDS011;8734;59.272;17.780;2022-10-16T05:49:38;19.33;;;10.80;;
17235;SDS011;8734;59.272;17.780;2022-10-16T05:52:08;25.50;;;11.97;;
17235;SDS011;8734;59.272;17.780;2022-10-16T05:54:36;28.17;;;11.57;;
17235;SDS011;8734;59.272;17.780;2022-10-16T05:57:04;21.50;;;10.70;;
17235;SDS011;8734;59.272;17.780;2022-10-16T05:59:33;21.07;;;11.23;;
17235;SDS011;8734;59.272;17.780;2022-10-16T06:02:01;19.27;;;10.20;;
17235;SDS011;8734;59.272;17.780;2022-10-16T06:04:30;20.20;;;11.30;;
17235;SDS011;8734;59.272;17.780;2022-10-16T06:06:58;29.10;;;11.43;;
17235;SDS011;8734;59.272;17.780;2022-10-16T06:09:29;24.83;;;11.20;;
17235;SDS011;8734;59.272;17.780;2022-10-16T06:11:57;27.47;;;13.10;;
17235;SDS011;8734;59.272;17.780;2022-10-16T06:14:25;24.30;;;14.23;;
17235;SDS011;8734;59.272;17.780;2022-10-16T06:16:54;27.60;;;14.27;;
17235;SDS011;8734;59.272;17.780;2022-10-16T06:19:22;30.43;;;13.70;;
17235;SDS011;8734;59.272;17.780;2022-10-16T06:21:50;21.33;;;12.57;;
17235;SDS011;8734;59.272;17.780;2022-10-16T06:24:18;26.93;;;13.30;;
17235;SDS011;8734;59.272;17.780;2022-10-16T06:26:48;25.77;;;13.70;;
17235;SDS011;8734;59.272;17.780;2022-10-16T06:29:17;31.60;;;13.97;;
17235;SDS011;8734;59.272;17.780;2022-10-16T06:31:45;27.53;;;14.37;;
17235;SDS011;8734;59.272;17.780;2022-10-16T06:34:13;27.03;;;14.40;;
17235;SDS011;8734;59.272;17.780;2022-10-16T06:36:42;24.80;;;14.30;;
17235;SDS011;8734;59.272;17.780;2022-10-16T06:39:10;30.37;;;13.23;;
17235;SDS011;8734;59.272;17.780;2022-10-16T06:41:38;25.50;;;14.30;;
17235;SDS011;8734;59.272;17.780;2022-10-16T06:44:08;26.87;;;14.03;;
17235;SDS011;8734;59.272;17.780;2022-10-16T06:46:36;25.27;;;14.27;;
17235;SDS011;8734;59.272;17.780;2022-10-16T06:49:05;31.27;;;14.30;;
17235;SDS011;8734;59.272;17.780;2022-10-16T06:51:33;29.80;;;12.87;;
17235;SDS011;8734;59.272;17.780;2022-10-16T06:54:08;19.07;;;8.97;;
17235;SDS011;8734;59.272;17.780;2022-10-16T06:56:36;27.47;;;13.30;;
17235;SDS011;8734;59.272;17.780;2022-10-16T06:59:05;22.60;;;12.43;;
17235;SDS011;8734;59.272;17.780;2022-10-16T07:01:34;25.43;;;14.07;;
17235;SDS011;8734;59.272;17.780;2022-10-16T07:04:03;27.97;;;11.83;;
17235;SDS011;8734;59.272;17.780;2022-10-16T07:06:32;24.77;;;11.97;;
17235;SDS011;8734;59.272;17.780;2022-10-16T07:09:02;28.10;;;12.07;;
17235;SDS011;8734;59.272;17.780;2022-10-16T07:11:32;22.40;;;10.70;;
17235;SDS011;8734;59.272;17.780;2022-10-16T07:14:01;22.93;;;11.90;;
17235;SDS011;8734;59.272;17.780;2022-10-16T07:16:30;19.60;;;10.50;;
17235;SDS011;8734;59.272;17.780;2022-10-16T07:19:02;18.90;;;10.13;;
17235;SDS011;8734;59.272;17.780;2022-10-16T07:21:31;22.63;;;9.47;;
17235;SDS011;8734;59.272;17.780;2022-10-16T07:24:03;17.13;;;10.00;;
17235;SDS011;8734;59.272;17.780;2022-10-16T07:26:33;17.43;;;10.07;;
17235;SDS011;8734;59.272;17.780;2022-10-16T07:29:06;14.57;;;8.30;;
17235;SDS011;8734;59.272;17.780;2022-10-16T07:31:35;18.40;;;8.40;;
17235;SDS011;8734;59.272;17.780;2022-10-16T07:34:06;15.43;;;7.37;;
17235;SDS011;8734;59.272;17.780;2022-10-16T07:36:34;15.50;;;7.93;;
17235;SDS011;8734;59.272;17.780;2022-10-16T07:39:02;17.57;;;8.10;;
17235;SDS011;8734;59.272;17.780;2022-10-16T07:41:31;17.10;;;7.97;;
17235;SDS011;8734;59.272;17.780;2022-10-16T07:44:03;17.47;;;7.67;;
17235;SDS011;8734;59.272;17.780;2022-10-16T07:46:32;15.10;;;7.33;;
17235;SDS011;8734;59.272;17.780;2022-10-16T07:49:02;9.97;;;6.53;;
17235;SDS011;8734;59.272;17.780;2022-10-16T07:51:32;14.40;;;6.30;;
17235;SDS011;8734;59.272;17.780;2022-10-16T07:54:00;19.53;;;6.10;;
17235;SDS011;8734;59.272;17.780;2022-10-16T07:56:29;9.57;;;6.13;;
17235;SDS011;8734;59.272;17.780;2022-10-16T07:58:59;14.77;;;6.57;;
17235;SDS011;8734;59.272;17.780;2022-10-16T08:01:27;9.97;;;5.70;;
17235;SDS011;8734;59.272;17.780;2022-10-16T08:03:55;10.17;;;5.97;;
17235;SDS011;8734;59.272;17.780;2022-10-16T08:06:24;12.90;;;6.20;;
17235;SDS011;8734;59.272;17.780;2022-10-16T08:08:55;10.53;;;5.60;;
17235;SDS011;8734;59.272;17.780;2022-10-16T08:11:23;8.93;;;5.50;;
17235;SDS011;8734;59.272;17.780;2022-10-16T08:13:52;8.27;;;4.63;;
17235;SDS011;8734;59.272;17.780;2022-10-16T08:16:20;14.47;;;5.17;;
17235;SDS011;8734;59.272;17.780;2022-10-16T08:18:49;8.03;;;4.97;;
17235;SDS011;8734;59.272;17.780;2022-10-16T08:21:19;7.73;;;4.80;;
17235;SDS011;8734;59.272;17.780;2022-10-16T08:23:49;7.27;;;4.87;;
17235;SDS011;8734;59.272;17.780;2022-10-16T08:26:24;11.37;;;4.63;;
17235;SDS011;8734;59.272;17.780;2022-10-16T08:28:53;8.13;;;4.37;;
17235;SDS011;8734;59.272;17.780;2022-10-16T08:31:22;10.93;;;5.13;;
17235;SDS011;8734;59.272;17.780;2022-10-16T08:33:53;13.37;;;4.57;;
17235;SDS011;8734;59.272;17.780;2022-10-16T08:36:21;9.60;;;4.50;;
17235;SDS011;8734;59.272;17.780;2022-10-16T08:38:49;8.20;;;4.57;;
17235;SDS011;8734;59.272;17.780;2022-10-16T08:41:29;6.23;;;4.27;;
17235;SDS011;8734;59.272;17.780;2022-10-16T08:44:24;10.60;;;4.70;;
17235;SDS011;8734;59.272;17.780;2022-10-16T08:47:04;7.03;;;4.10;;
17235;SDS011;8734;59.272;17.780;2022-10-16T08:49:41;10.67;;;3.97;;
17235;SDS011;8734;59.272;17.780;2022-10-16T08:52:11;10.77;;;4.40;;
17235;SDS011;8734;59.272;17.780;2022-10-16T08:54:41;8.23;;;3.73;;
17235;SDS011;8734;59.272;17.780;2022-10-16T08:57:16;18.97;;;4.50;;
17235;SDS011;8734;59.272;17.780;2022-10-16T08:59:49;11.27;;;4.70;;
17235;SDS011;8734;59.272;17.780;2022-10-16T09:02:22;8.90;;;4.10;;
17235;SDS011;8734;59.272;17.780;2022-10-16T09:04:58;8.27;;;3.77;;
17235;SDS011;8734;59.272;17.780;2022-10-16T09:07:51;8.13;;;3.90;;
17235;SDS011;8734;59.272;17.780;2022-10-16T09:10:32;8.30;;;3.93;;
17235;SDS011;8734;59.272;17.780;2022-10-16T09:13:13;9.47;;;3.73;;
17235;SDS011;8734;59.272;17.780;2022-10-16T09:15:50;10.33;;;3.83;;
17235;SDS011;8734;59.272;17.780;2022-10-16T09:18:25;6.67;;;3.30;;
17235;SDS011;8734;59.272;17.780;2022-10-16T09:20:59;12.47;;;3.40;;
17235;SDS011;8734;59.272;17.780;2022-10-16T09:23:33;8.77;;;2.73;;
17235;SDS011;8734;59.272;17.780;2022-10-16T09:26:03;4.40;;;2.50;;
17235;SDS011;8734;59.272;17.780;2022-10-16T09:28:38;5.17;;;2.63;;
17235;SDS011;8734;59.272;17.780;2022-10-16T09:31:09;6.83;;;3.00;;
17235;SDS011;8734;59.272;17.780;2022-10-16T09:33:43;7.03;;;3.10;;
17235;SDS011;8734;59.272;17.780;2022-10-16T09:36:14;4.37;;;1.80;;
17235;SDS011;8734;59.272;17.780;2022-10-16T09:38:42;7.47;;;3.30;;
17235;SDS011;8734;59.272;17.780;2022-10-16T09:41:13;4.63;;;2.80;;
17235;SDS011;8734;59.272;17.780;2022-10-16T09:43:50;7.67;;;3.07;;
17235;SDS011;8734;59.272;17.780;2022-10-16T09:46:24;5.73;;;2.33;;
17235;SDS011;8734;59.272;17.780;2022-10-16T09:48:55;6.20;;;2.33;;
17235;SDS011;8734;59.272;17.780;2022-10-16T09:51:25;7.67;;;2.43;;
17235;SDS011;8734;59.272;17.780;2022-10-16T09:53:56;7.77;;;2.67;;
17235;SDS011;8734;59.272;17.780;2022-10-16T09:56:27;8.40;;;2.00;;
17235;SDS011;8734;59.272;17.780;2022-10-16T09:58:58;6.17;;;2.30;;
17235;SDS011;8734;59.272;17.780;2022-10-16T10:01:30;8.00;;;2.27;;
17235;SDS011;8734;59.272;17.780;2022-10-16T10:04:03;8.70;;;2.23;;
17235;SDS011;8734;59.272;17.780;2022-10-16T10:06:33;7.13;;;2.20;;
17235;SDS011;8734;59.272;17.780;2022-10-16T10:09:14;9.67;;;2.20;;
17235;SDS011;8734;59.272;17.780;2022-10-16T10:11:50;4.17;;;1.97;;
17235;SDS011;8734;59.272;17.780;2022-10-16T10:14:23;4.60;;;2.17;;
17235;SDS011;8734;59.272;17.780;2022-10-16T10:19:47;7.27;;;2.70;;
17235;SDS011;8734;59.272;17.780;2022-10-16T10:28:21;4.47;;;2.23;;
17235;SDS011;8734;59.272;17.780;2022-10-16T10:31:06;6.60;;;2.43;;
17235;SDS011;8734;59.272;17.780;2022-10-16T10:33:41;7.93;;;2.10;;
17235;SDS011;8734;59.272;17.780;2022-10-16T10:36:20;7.60;;;1.97;;
17235;SDS011;8734;59.272;17.780;2022-10-16T10:39:08;9.00;;;2.20;;
17235;SDS011;8734;59.272;17.780;2022-10-16T10:44:51;4.70;;;2.10;;
17235;SDS011;8734;59.272;17.780;2022-10-16T10:47:38;9.50;;;2.20;;
17235;SDS011;8734;59.272;17.780;2022-10-16T10:50:16;10.80;;;3.73;;
17235;SDS011;8734;59.272;17.780;2022-10-16T10:52:57;6.93;;;2.27;;
17235;SDS011;8734;59.272;17.780;2022-10-16T10:55:33;7.67;;;2.40;;
17235;SDS011;8734;59.272;17.780;2022-10-16T10:58:12;7.57;;;2.27;;
17235;SDS011;8734;59.272;17.780;2022-10-16T11:01:04;3.47;;;1.67;;
17235;SDS011;8734;59.272;17.780;2022-10-16T11:03:42;6.33;;;2.53;;
17235;SDS011;8734;59.272;17.780;2022-10-16T11:06:24;12.27;;;2.30;;
17235;SDS011;8734;59.272;17.780;2022-10-16T11:08:57;10.37;;;2.20;;
17235;SDS011;8734;59.272;17.780;2022-10-16T11:11:30;8.53;;;2.30;;
17235;SDS011;8734;59.272;17.780;2022-10-16T11:14:03;7.37;;;1.97;;
17235;SDS011;8734;59.272;17.780;2022-10-16T11:16:37;8.93;;;2.50;;
17235;SDS011;8734;59.272;17.780;2022-10-16T11:19:12;7.67;;;2.10;;
17235;SDS011;8734;59.272;17.780;2022-10-16T11:21:50;4.70;;;2.00;;
17235;SDS011;8734;59.272;17.780;2022-10-16T11:24:23;6.97;;;2.23;;
17235;SDS011;8734;59.272;17.780;2022-10-16T11:26:59;11.03;;;1.93;;
17235;SDS011;8734;59.272;17.780;2022-10-16T11:29:34;12.60;;;2.53;;
17235;SDS011;8734;59.272;17.780;2022-10-16T11:32:12;9.20;;;2.67;;
17235;SDS011;8734;59.272;17.780;2022-10-16T11:34:50;8.37;;;2.47;;
17235;SDS011;8734;59.272;17.780;2022-10-16T11:37:24;6.47;;;2.30;;
17235;SDS011;8734;59.272;17.780;2022-10-16T11:39:58;7.93;;;2.23;;
17235;SDS011;8734;59.272;17.780;2022-10-16T11:42:39;7.97;;;2.20;;
17235;SDS011;8734;59.272;17.780;2022-10-16T11:45:17;11.90;;;2.30;;
17235;SDS011;8734;59.272;17.780;2022-10-16T11:47:57;7.50;;;2.13;;
17235;SDS011;8734;59.272;17.780;2022-10-16T11:50:34;6.73;;;1.77;;
17235;SDS011;8734;59.272;17.780;2022-10-16T11:53:07;7.00;;;2.00;;
17235;SDS011;8734;59.272;17.780;2022-10-16T11:55:41;9.23;;;2.50;;
17235;SDS011;8734;59.272;17.780;2022-10-16T11:58:15;8.23;;;3.60;;
17235;SDS011;8734;59.272;17.780;2022-10-16T12:00:52;10.87;;;2.00;;
17235;SDS011;8734;59.272;17.780;2022-10-16T12:03:28;10.43;;;1.90;;
17235;SDS011;8734;59.272;17.780;2022-10-16T12:08:58;8.70;;;2.23;;
17235;SDS011;8734;59.272;17.780;2022-10-16T12:11:32;7.00;;;2.13;;
17235;SDS011;8734;59.272;17.780;2022-10-16T12:14:04;7.70;;;2.57;;
17235;SDS011;8734;59.272;17.780;2022-10-16T12:16:53;9.47;;;2.90;;
17235;SDS011;8734;59.272;17.780;2022-10-16T12:19:23;10.07;;;2.53;;
17235;SDS011;8734;59.272;17.780;2022-10-16T12:21:55;11.07;;;2.43;;
17235;SDS011;8734;59.272;17.780;2022-10-16T12:24:31;7.57;;;2.53;;
17235;SDS011;8734;59.272;17.780;2022-10-16T12:27:03;7.73;;;2.30;;
17235;SDS011;8734;59.272;17.780;2022-10-16T12:29:37;9.03;;;2.70;;
17235;SDS011;8734;59.272;17.780;2022-10-16T12:32:20;6.80;;;2.63;;
17235;SDS011;8734;59.272;17.780;2022-10-16T12:35:17;6.57;;;2.40;;
17235;SDS011;8734;59.272;17.780;2022-10-16T12:37:48;7.17;;;2.90;;
17235;SDS011;8734;59.272;17.780;2022-10-16T12:40:24;6.47;;;2.87;;
17235;SDS011;8734;59.272;17.780;2022-10-16T12:42:55;4.57;;;2.40;;
17235;SDS011;8734;59.272;17.780;2022-10-16T12:45:28;5.10;;;2.30;;
17235;SDS011;8734;59.272;17.780;2022-10-16T12:47:58;5.10;;;2.13;;
17235;SDS011;8734;59.272;17.780;2022-10-16T12:50:31;5.70;;;2.17;;
17235;SDS011;8734;59.272;17.780;2022-10-16T12:53:03;6.10;;;2.17;;
17235;SDS011;8734;59.272;17.780;2022-10-16T12:55:47;11.10;;;2.57;;
17235;SDS011;8734;59.272;17.780;2022-10-16T12:58:37;4.83;;;2.57;;
17235;SDS011;8734;59.272;17.780;2022-10-16T13:01:28;4.07;;;2.13;;
17235;SDS011;8734;59.272;17.780;2022-10-16T13:07:06;10.13;;;3.17;;
17235;SDS011;8734;59.272;17.780;2022-10-16T13:10:00;4.17;;;1.83;;
17235;SDS011;8734;59.272;17.780;2022-10-16T13:12:42;3.73;;;1.70;;
17235;SDS011;8734;59.272;17.780;2022-10-16T13:15:29;2.50;;;1.73;;
17235;SDS011;8734;59.272;17.780;2022-10-16T13:18:14;6.87;;;2.17;;
17235;SDS011;8734;59.272;17.780;2022-10-16T13:20:51;4.80;;;1.63;;
17235;SDS011;8734;59.272;17.780;2022-10-16T13:23:30;5.17;;;1.93;;
17235;SDS011;8734;59.272;17.780;2022-10-16T13:26:09;9.77;;;2.10;;
17235;SDS011;8734;59.272;17.780;2022-10-16T13:28:45;5.67;;;2.03;;
17235;SDS011;8734;59.272;17.780;2022-10-16T13:31:15;2.73;;;1.70;;
17235;SDS011;8734;59.272;17.780;2022-10-16T13:33:46;8.00;;;1.20;;
17235;SDS011;8734;59.272;17.780;2022-10-16T13:36:19;4.90;;;1.60;;
17235;SDS011;8734;59.272;17.780;2022-10-16T13:38:50;6.00;;;2.40;;
17235;SDS011;8734;59.272;17.780;2022-10-16T13:41:29;4.03;;;1.33;;
17235;SDS011;8734;59.272;17.780;2022-10-16T13:43:57;3.70;;;1.57;;
17235;SDS011;8734;59.272;17.780;2022-10-16T13:46:26;7.47;;;2.03;;
17235;SDS011;8734;59.272;17.780;2022-10-16T13:48:56;4.10;;;1.70;;
17235;SDS011;8734;59.272;17.780;2022-10-16T13:51:25;5.67;;;1.77;;
17235;SDS011;8734;59.272;17.780;2022-10-16T13:53:54;3.40;;;1.60;;
17235;SDS011;8734;59.272;17.780;2022-10-16T13:56:25;8.40;;;2.00;;
17235;SDS011;8734;59.272;17.780;2022-10-16T13:59:00;5.70;;;1.47;;
17235;SDS011;8734;59.272;17.780;2022-10-16T14:01:29;4.93;;;1.90;;
17235;SDS011;8734;59.272;17.780;2022-10-16T14:04:01;11.00;;;1.53;;
17235;SDS011;8734;59.272;17.780;2022-10-16T14:06:32;7.20;;;1.90;;
17235;SDS011;8734;59.272;17.780;2022-10-16T14:09:01;7.50;;;2.03;;
17235;SDS011;8734;59.272;17.780;2022-10-16T14:11:34;6.03;;;1.70;;
17235;SDS011;8734;59.272;17.780;2022-10-16T14:14:11;9.30;;;2.03;;
17235;SDS011;8734;59.272;17.780;2022-10-16T14:16:41;8.13;;;2.13;;
17235;SDS011;8734;59.272;17.780;2022-10-16T14:19:13;12.53;;;2.27;;
17235;SDS011;8734;59.272;17.780;2022-10-16T14:21:46;7.10;;;1.70;;
17235;SDS011;8734;59.272;17.780;2022-10-16T14:24:22;7.13;;;2.20;;
17235;SDS011;8734;59.272;17.780;2022-10-16T14:26:55;3.80;;;1.57;;
17235;SDS011;8734;59.272;17.780;2022-10-16T14:29:26;7.90;;;1.90;;
17235;SDS011;8734;59.272;17.780;2022-10-16T14:31:58;12.83;;;2.33;;
17235;SDS011;8734;59.272;17.780;2022-10-16T14:34:29;5.37;;;1.80;;
17235;SDS011;8734;59.272;17.780;2022-10-16T14:37:00;8.53;;;1.73;;
17235;SDS011;8734;59.272;17.780;2022-10-16T14:39:35;10.83;;;2.03;;
17235;SDS011;8734;59.272;17.780;2022-10-16T14:42:04;6.83;;;1.90;;
17235;SDS011;8734;59.272;17.780;2022-10-16T14:44:42;9.83;;;2.00;;
17235;SDS011;8734;59.272;17.780;2022-10-16T14:47:13;11.10;;;2.20;;
17235;SDS011;8734;59.272;17.780;2022-10-16T14:49:49;9.97;;;2.10;;
17235;SDS011;8734;59.272;17.780;2022-10-16T14:52:17;14.20;;;1.70;;
17235;SDS011;8734;59.272;17.780;2022-10-16T14:54:48;3.93;;;1.70;;
17235;SDS011;8734;59.272;17.780;2022-10-16T14:57:17;9.63;;;2.13;;
17235;SDS011;8734;59.272;17.780;2022-10-16T14:59:48;6.70;;;2.20;;
17235;SDS011;8734;59.272;17.780;2022-10-16T15:02:20;7.93;;;2.17;;
17235;SDS011;8734;59.272;17.780;2022-10-16T15:04:54;10.50;;;2.17;;
17235;SDS011;8734;59.272;17.780;2022-10-16T15:07:23;7.97;;;2.30;;
17235;SDS011;8734;59.272;17.780;2022-10-16T15:09:52;8.20;;;2.53;;
17235;SDS011;8734;59.272;17.780;2022-10-16T15:12:21;8.27;;;2.00;;
17235;SDS011;8734;59.272;17.780;2022-10-16T15:14:51;4.83;;;1.20;;
17235;SDS011;8734;59.272;17.780;2022-10-16T15:17:19;2.47;;;1.00;;
17235;SDS011;8734;59.272;17.780;2022-10-16T15:19:48;3.70;;;0.90;;
17235;SDS011;8734;59.272;17.780;2022-10-16T15:22:17;6.57;;;0.80;;